sensor_id;sensor_type;location;lat;lon;timestamp;P1;durP1;ratioP1;P2;durP2;ratioP2
67804;SDS011;54603;45.638;11.714;2023-01-10T00:01:17;5.60;;;4.60;;
67804;SDS011;54603;45.638;11.714;2023-01-10T00:03:43;5.20;;;4.40;;
67804;SDS011;54603;45.638;11.714;2023-01-10T00:06:08;6.20;;;4.70;;
67804;SDS011;54603;45.638;11.714;2023-01-10T00:08:34;5.10;;;4.60;;
67804;SDS011;54603;45.638;11.714;2023-01-10T00:10:59;5.40;;;4.70;;
67804;SDS011;54603;45.638;11.714;2023-01-10T00:13:45;5.30;;;4.40;;
67804;SDS011;54603;45.638;11.714;2023-01-10T00:16:10;6.20;;;4.50;;
67804;SDS011;54603;45.638;11.714;2023-01-10T00:18:36;6.50;;;4.60;;
67804;SDS011;54603;45.638;11.714;2023-01-10T00:21:01;6.70;;;4.40;;
67804;SDS011;54603;45.638;11.714;2023-01-10T00:23:28;5.40;;;4.90;;
67804;SDS011;54603;45.638;11.714;2023-01-10T00:25:53;5.90;;;4.60;;
67804;SDS011;54603;45.638;11.714;2023-01-10T00:28:19;5.70;;;4.50;;
67804;SDS011;54603;45.638;11.714;2023-01-10T00:30:48;5.10;;;4.50;;
67804;SDS011;54603;45.638;11.714;2023-01-10T00:33:34;5.20;;;4.50;;
67804;SDS011;54603;45.638;11.714;2023-01-10T00:36:01;5.00;;;4.50;;
67804;SDS011;54603;45.638;11.714;2023-01-10T00:38:28;5.20;;;4.00;;
67804;SDS011;54603;45.638;11.714;2023-01-10T00:40:55;6.50;;;4.30;;
67804;SDS011;54603;45.638;11.714;2023-01-10T00:43:21;5.60;;;4.20;;
67804;SDS011;54603;45.638;11.714;2023-01-10T00:46:06;6.00;;;4.10;;
67804;SDS011;54603;45.638;11.714;2023-01-10T00:48:33;5.10;;;4.10;;
67804;SDS011;54603;45.638;11.714;2023-01-10T00:50:58;6.70;;;4.30;;
67804;SDS011;54603;45.638;11.714;2023-01-10T00:53:24;4.70;;;4.10;;
67804;SDS011;54603;45.638;11.714;2023-01-10T00:55:49;5.30;;;4.10;;
67804;SDS011;54603;45.638;11.714;2023-01-10T00:58:15;5.50;;;4.20;;
67804;SDS011;54603;45.638;11.714;2023-01-10T01:00:41;5.50;;;4.50;;
67804;SDS011;54603;45.638;11.714;2023-01-10T01:03:11;4.60;;;4.10;;
67804;SDS011;54603;45.638;11.714;2023-01-10T01:05:41;4.00;;;3.40;;
67804;SDS011;54603;45.638;11.714;2023-01-10T01:08:07;5.30;;;4.10;;
67804;SDS011;54603;45.638;11.714;2023-01-10T01:10:33;5.30;;;4.30;;
67804;SDS011;54603;45.638;11.714;2023-01-10T01:13:05;4.90;;;4.20;;
67804;SDS011;54603;45.638;11.714;2023-01-10T01:15:32;5.00;;;4.30;;
67804;SDS011;54603;45.638;11.714;2023-01-10T01:18:02;4.40;;;4.00;;
67804;SDS011;54603;45.638;11.714;2023-01-10T01:20:28;6.50;;;4.90;;
67804;SDS011;54603;45.638;11.714;2023-01-10T01:22:54;4.50;;;4.00;;
67804;SDS011;54603;45.638;11.714;2023-01-10T01:25:20;4.60;;;4.10;;
67804;SDS011;54603;45.638;11.714;2023-01-10T01:27:45;4.80;;;4.20;;
67804;SDS011;54603;45.638;11.714;2023-01-10T01:30:11;6.50;;;4.40;;
67804;SDS011;54603;45.638;11.714;2023-01-10T01:32:37;6.00;;;4.30;;
67804;SDS011;54603;45.638;11.714;2023-01-10T01:35:03;5.00;;;4.20;;
67804;SDS011;54603;45.638;11.714;2023-01-10T01:37:30;5.40;;;3.90;;
67804;SDS011;54603;45.638;11.714;2023-01-10T01:39:55;4.20;;;3.80;;
67804;SDS011;54603;45.638;11.714;2023-01-10T01:42:25;5.00;;;3.60;;
67804;SDS011;54603;45.638;11.714;2023-01-10T01:47:35;5.30;;;4.00;;
67804;SDS011;54603;45.638;11.714;2023-01-10T01:50:02;3.90;;;3.50;;
67804;SDS011;54603;45.638;11.714;2023-01-10T01:52:29;4.70;;;4.00;;
67804;SDS011;54603;45.638;11.714;2023-01-10T01:54:58;4.00;;;3.60;;
67804;SDS011;54603;45.638;11.714;2023-01-10T01:57:25;3.80;;;3.50;;
67804;SDS011;54603;45.638;11.714;2023-01-10T01:59:53;4.20;;;3.60;;
67804;SDS011;54603;45.638;11.714;2023-01-10T02:02:53;3.70;;;3.30;;
67804;SDS011;54603;45.638;11.714;2023-01-10T02:05:16;5.10;;;3.70;;
67804;SDS011;54603;45.638;11.714;2023-01-10T02:07:44;4.80;;;3.60;;
67804;SDS011;54603;45.638;11.714;2023-01-10T02:13:04;3.70;;;3.30;;
67804;SDS011;54603;45.638;11.714;2023-01-10T02:15:31;5.60;;;3.70;;
67804;SDS011;54603;45.638;11.714;2023-01-10T02:17:57;4.00;;;3.10;;
67804;SDS011;54603;45.638;11.714;2023-01-10T02:20:23;3.80;;;3.40;;
67804;SDS011;54603;45.638;11.714;2023-01-10T02:25:50;4.30;;;3.20;;
67804;SDS011;54603;45.638;11.714;2023-01-10T02:28:52;3.40;;;3.00;;
67804;SDS011;54603;45.638;11.714;2023-01-10T02:43:36;4.10;;;3.20;;
67804;SDS011;54603;45.638;11.714;2023-01-10T02:46:13;4.00;;;3.10;;
67804;SDS011;54603;45.638;11.714;2023-01-10T02:48:41;4.20;;;3.50;;
67804;SDS011;54603;45.638;11.714;2023-01-10T02:51:25;3.40;;;2.90;;
67804;SDS011;54603;45.638;11.714;2023-01-10T03:01:58;3.30;;;2.90;;
67804;SDS011;54603;45.638;11.714;2023-01-10T03:07:36;3.10;;;2.80;;
67804;SDS011;54603;45.638;11.714;2023-01-10T03:15:37;3.10;;;2.80;;
67804;SDS011;54603;45.638;11.714;2023-01-10T03:18:05;3.30;;;2.90;;
67804;SDS011;54603;45.638;11.714;2023-01-10T03:20:35;3.60;;;3.00;;
67804;SDS011;54603;45.638;11.714;2023-01-10T03:23:02;3.90;;;3.00;;
67804;SDS011;54603;45.638;11.714;2023-01-10T03:25:30;3.20;;;2.80;;
67804;SDS011;54603;45.638;11.714;2023-01-10T03:28:09;4.00;;;3.20;;
67804;SDS011;54603;45.638;11.714;2023-01-10T03:30:44;3.10;;;2.80;;
67804;SDS011;54603;45.638;11.714;2023-01-10T03:33:15;3.90;;;3.20;;
67804;SDS011;54603;45.638;11.714;2023-01-10T03:38:27;3.30;;;2.90;;
67804;SDS011;54603;45.638;11.714;2023-01-10T03:41:07;4.10;;;2.90;;
67804;SDS011;54603;45.638;11.714;2023-01-10T03:43:42;3.80;;;3.30;;
67804;SDS011;54603;45.638;11.714;2023-01-10T03:49:03;3.30;;;2.60;;
67804;SDS011;54603;45.638;11.714;2023-01-10T03:51:29;3.30;;;3.00;;
67804;SDS011;54603;45.638;11.714;2023-01-10T03:53:58;3.20;;;2.70;;
67804;SDS011;54603;45.638;11.714;2023-01-10T03:56:25;3.40;;;2.80;;
67804;SDS011;54603;45.638;11.714;2023-01-10T03:58:50;3.20;;;2.70;;
67804;SDS011;54603;45.638;11.714;2023-01-10T04:01:16;3.60;;;2.90;;
67804;SDS011;54603;45.638;11.714;2023-01-10T04:03:41;3.30;;;2.80;;
67804;SDS011;54603;45.638;11.714;2023-01-10T04:06:07;3.50;;;2.70;;
67804;SDS011;54603;45.638;11.714;2023-01-10T04:08:32;3.40;;;3.00;;
67804;SDS011;54603;45.638;11.714;2023-01-10T04:10:58;3.40;;;2.90;;
67804;SDS011;54603;45.638;11.714;2023-01-10T04:13:24;3.00;;;2.70;;
67804;SDS011;54603;45.638;11.714;2023-01-10T04:15:49;3.30;;;3.00;;
67804;SDS011;54603;45.638;11.714;2023-01-10T04:18:15;3.40;;;2.60;;
67804;SDS011;54603;45.638;11.714;2023-01-10T04:20:41;3.30;;;2.40;;
67804;SDS011;54603;45.638;11.714;2023-01-10T04:23:06;3.00;;;2.70;;
67804;SDS011;54603;45.638;11.714;2023-01-10T04:25:32;5.40;;;2.60;;
67804;SDS011;54603;45.638;11.714;2023-01-10T04:27:57;3.10;;;2.80;;
67804;SDS011;54603;45.638;11.714;2023-01-10T04:30:23;3.30;;;2.70;;
67804;SDS011;54603;45.638;11.714;2023-01-10T04:32:49;3.60;;;2.90;;
67804;SDS011;54603;45.638;11.714;2023-01-10T04:35:14;2.80;;;2.40;;
67804;SDS011;54603;45.638;11.714;2023-01-10T04:37:40;3.90;;;2.70;;
67804;SDS011;54603;45.638;11.714;2023-01-10T04:40:07;2.70;;;2.50;;
67804;SDS011;54603;45.638;11.714;2023-01-10T04:42:33;3.10;;;2.80;;
67804;SDS011;54603;45.638;11.714;2023-01-10T04:44:59;2.90;;;2.60;;
67804;SDS011;54603;45.638;11.714;2023-01-10T04:47:25;2.90;;;2.60;;
67804;SDS011;54603;45.638;11.714;2023-01-10T04:49:50;2.80;;;2.30;;
67804;SDS011;54603;45.638;11.714;2023-01-10T04:52:16;2.80;;;2.50;;
67804;SDS011;54603;45.638;11.714;2023-01-10T04:54:41;2.90;;;2.50;;
67804;SDS011;54603;45.638;11.714;2023-01-10T04:57:07;3.00;;;2.50;;
67804;SDS011;54603;45.638;11.714;2023-01-10T04:59:32;2.90;;;2.70;;
67804;SDS011;54603;45.638;11.714;2023-01-10T05:01:58;4.20;;;2.60;;
67804;SDS011;54603;45.638;11.714;2023-01-10T05:04:24;2.70;;;2.40;;
67804;SDS011;54603;45.638;11.714;2023-01-10T05:06:49;2.80;;;2.40;;
67804;SDS011;54603;45.638;11.714;2023-01-10T05:09:15;2.90;;;2.30;;
67804;SDS011;54603;45.638;11.714;2023-01-10T05:11:41;3.90;;;2.60;;
67804;SDS011;54603;45.638;11.714;2023-01-10T05:14:06;3.10;;;2.40;;
67804;SDS011;54603;45.638;11.714;2023-01-10T05:16:32;2.60;;;2.30;;
67804;SDS011;54603;45.638;11.714;2023-01-10T05:18:57;3.00;;;2.70;;
67804;SDS011;54603;45.638;11.714;2023-01-10T05:21:23;2.50;;;2.30;;
67804;SDS011;54603;45.638;11.714;2023-01-10T05:23:48;2.70;;;2.40;;
67804;SDS011;54603;45.638;11.714;2023-01-10T05:26:16;3.30;;;2.80;;
67804;SDS011;54603;45.638;11.714;2023-01-10T05:28:43;2.60;;;2.40;;
67804;SDS011;54603;45.638;11.714;2023-01-10T05:31:10;2.70;;;2.30;;
67804;SDS011;54603;45.638;11.714;2023-01-10T05:33:37;4.70;;;3.30;;
67804;SDS011;54603;45.638;11.714;2023-01-10T05:36:03;2.20;;;2.00;;
67804;SDS011;54603;45.638;11.714;2023-01-10T05:38:30;3.00;;;2.40;;
67804;SDS011;54603;45.638;11.714;2023-01-10T05:40:57;4.60;;;2.50;;
67804;SDS011;54603;45.638;11.714;2023-01-10T05:43:23;2.80;;;2.40;;
67804;SDS011;54603;45.638;11.714;2023-01-10T05:45:49;2.70;;;2.20;;
67804;SDS011;54603;45.638;11.714;2023-01-10T05:48:15;3.20;;;2.40;;
67804;SDS011;54603;45.638;11.714;2023-01-10T05:50:41;2.80;;;2.50;;
67804;SDS011;54603;45.638;11.714;2023-01-10T05:53:06;3.10;;;2.40;;
67804;SDS011;54603;45.638;11.714;2023-01-10T05:55:32;2.20;;;2.00;;
67804;SDS011;54603;45.638;11.714;2023-01-10T05:57:58;3.10;;;2.50;;
67804;SDS011;54603;45.638;11.714;2023-01-10T06:00:24;2.50;;;2.10;;
67804;SDS011;54603;45.638;11.714;2023-01-10T06:02:49;2.30;;;2.10;;
67804;SDS011;54603;45.638;11.714;2023-01-10T06:05:15;4.00;;;2.30;;
67804;SDS011;54603;45.638;11.714;2023-01-10T06:07:41;2.60;;;2.40;;
67804;SDS011;54603;45.638;11.714;2023-01-10T06:10:07;3.40;;;2.10;;
67804;SDS011;54603;45.638;11.714;2023-01-10T06:12:33;2.20;;;1.90;;
67804;SDS011;54603;45.638;11.714;2023-01-10T06:14:58;2.40;;;2.20;;
67804;SDS011;54603;45.638;11.714;2023-01-10T06:17:24;2.50;;;2.30;;
67804;SDS011;54603;45.638;11.714;2023-01-10T06:19:49;2.80;;;2.10;;
67804;SDS011;54603;45.638;11.714;2023-01-10T06:22:16;2.40;;;2.00;;
67804;SDS011;54603;45.638;11.714;2023-01-10T06:24:42;2.40;;;2.20;;
67804;SDS011;54603;45.638;11.714;2023-01-10T06:27:07;2.60;;;2.20;;
67804;SDS011;54603;45.638;11.714;2023-01-10T06:29:33;3.10;;;2.40;;
67804;SDS011;54603;45.638;11.714;2023-01-10T06:31:58;2.60;;;2.10;;
67804;SDS011;54603;45.638;11.714;2023-01-10T06:34:24;3.00;;;2.30;;
67804;SDS011;54603;45.638;11.714;2023-01-10T06:36:51;2.50;;;2.30;;
67804;SDS011;54603;45.638;11.714;2023-01-10T06:39:24;3.30;;;2.00;;
67804;SDS011;54603;45.638;11.714;2023-01-10T06:41:49;2.50;;;2.20;;
67804;SDS011;54603;45.638;11.714;2023-01-10T06:44:16;2.30;;;2.10;;
67804;SDS011;54603;45.638;11.714;2023-01-10T06:46:43;2.60;;;2.00;;
67804;SDS011;54603;45.638;11.714;2023-01-10T06:49:09;2.30;;;1.90;;
67804;SDS011;54603;45.638;11.714;2023-01-10T06:51:34;2.10;;;1.90;;
67804;SDS011;54603;45.638;11.714;2023-01-10T06:54:00;2.20;;;2.00;;
67804;SDS011;54603;45.638;11.714;2023-01-10T06:56:26;3.00;;;2.00;;
67804;SDS011;54603;45.638;11.714;2023-01-10T06:58:51;2.10;;;1.90;;
67804;SDS011;54603;45.638;11.714;2023-01-10T07:01:19;2.50;;;2.00;;
67804;SDS011;54603;45.638;11.714;2023-01-10T07:03:45;3.60;;;1.90;;
67804;SDS011;54603;45.638;11.714;2023-01-10T07:06:11;3.10;;;2.10;;
67804;SDS011;54603;45.638;11.714;2023-01-10T07:08:38;4.60;;;2.30;;
67804;SDS011;54603;45.638;11.714;2023-01-10T07:11:05;3.40;;;2.10;;
67804;SDS011;54603;45.638;11.714;2023-01-10T07:13:32;3.00;;;2.20;;
67804;SDS011;54603;45.638;11.714;2023-01-10T07:16:03;5.20;;;2.40;;
67804;SDS011;54603;45.638;11.714;2023-01-10T07:18:32;3.30;;;2.30;;
67804;SDS011;54603;45.638;11.714;2023-01-10T07:20:59;4.40;;;2.10;;
67804;SDS011;54603;45.638;11.714;2023-01-10T07:23:25;6.90;;;2.20;;
67804;SDS011;54603;45.638;11.714;2023-01-10T07:25:55;3.90;;;2.20;;
67804;SDS011;54603;45.638;11.714;2023-01-10T07:28:26;4.40;;;2.30;;
67804;SDS011;54603;45.638;11.714;2023-01-10T07:30:51;7.90;;;2.10;;
67804;SDS011;54603;45.638;11.714;2023-01-10T07:33:18;5.30;;;2.50;;
67804;SDS011;54603;45.638;11.714;2023-01-10T07:35:43;2.50;;;2.10;;
67804;SDS011;54603;45.638;11.714;2023-01-10T07:38:09;2.70;;;2.10;;
67804;SDS011;54603;45.638;11.714;2023-01-10T07:40:39;2.40;;;2.00;;
67804;SDS011;54603;45.638;11.714;2023-01-10T07:43:08;4.40;;;2.20;;
67804;SDS011;54603;45.638;11.714;2023-01-10T07:45:37;4.30;;;2.20;;
67804;SDS011;54603;45.638;11.714;2023-01-10T07:48:03;4.00;;;2.10;;
67804;SDS011;54603;45.638;11.714;2023-01-10T07:50:30;3.60;;;2.00;;
67804;SDS011;54603;45.638;11.714;2023-01-10T07:52:58;3.60;;;2.30;;
67804;SDS011;54603;45.638;11.714;2023-01-10T07:55:26;5.10;;;2.30;;
67804;SDS011;54603;45.638;11.714;2023-01-10T07:57:53;5.60;;;2.30;;
67804;SDS011;54603;45.638;11.714;2023-01-10T08:00:19;5.10;;;2.50;;
67804;SDS011;54603;45.638;11.714;2023-01-10T08:02:45;5.60;;;2.60;;
67804;SDS011;54603;45.638;11.714;2023-01-10T08:05:12;4.40;;;2.30;;
67804;SDS011;54603;45.638;11.714;2023-01-10T08:07:38;5.30;;;2.10;;
67804;SDS011;54603;45.638;11.714;2023-01-10T08:10:04;6.20;;;2.40;;
67804;SDS011;54603;45.638;11.714;2023-01-10T08:12:31;2.90;;;2.40;;
67804;SDS011;54603;45.638;11.714;2023-01-10T08:14:57;4.50;;;2.40;;
67804;SDS011;54603;45.638;11.714;2023-01-10T08:17:23;3.10;;;2.20;;
67804;SDS011;54603;45.638;11.714;2023-01-10T08:19:49;4.60;;;2.40;;
67804;SDS011;54603;45.638;11.714;2023-01-10T08:22:16;4.60;;;2.60;;
67804;SDS011;54603;45.638;11.714;2023-01-10T08:24:42;3.80;;;2.50;;
67804;SDS011;54603;45.638;11.714;2023-01-10T08:27:08;4.30;;;2.10;;
67804;SDS011;54603;45.638;11.714;2023-01-10T08:29:34;2.90;;;2.20;;
67804;SDS011;54603;45.638;11.714;2023-01-10T08:32:00;2.60;;;2.20;;
67804;SDS011;54603;45.638;11.714;2023-01-10T08:34:26;5.70;;;2.30;;
67804;SDS011;54603;45.638;11.714;2023-01-10T08:36:52;3.80;;;1.90;;
67804;SDS011;54603;45.638;11.714;2023-01-10T08:39:19;3.10;;;2.50;;
67804;SDS011;54603;45.638;11.714;2023-01-10T08:41:50;4.30;;;2.10;;
67804;SDS011;54603;45.638;11.714;2023-01-10T08:44:17;3.10;;;2.40;;
67804;SDS011;54603;45.638;11.714;2023-01-10T08:46:43;3.90;;;2.30;;
67804;SDS011;54603;45.638;11.714;2023-01-10T08:49:09;5.30;;;2.60;;
67804;SDS011;54603;45.638;11.714;2023-01-10T08:51:36;6.50;;;2.30;;
67804;SDS011;54603;45.638;11.714;2023-01-10T08:54:02;3.00;;;2.10;;
67804;SDS011;54603;45.638;11.714;2023-01-10T08:56:29;4.60;;;2.30;;
67804;SDS011;54603;45.638;11.714;2023-01-10T08:58:56;3.40;;;2.30;;
67804;SDS011;54603;45.638;11.714;2023-01-10T09:01:23;2.70;;;2.20;;
67804;SDS011;54603;45.638;11.714;2023-01-10T09:03:52;3.10;;;2.10;;
67804;SDS011;54603;45.638;11.714;2023-01-10T09:06:18;2.80;;;2.10;;
67804;SDS011;54603;45.638;11.714;2023-01-10T09:08:44;4.00;;;2.10;;
67804;SDS011;54603;45.638;11.714;2023-01-10T09:11:13;3.60;;;2.10;;
67804;SDS011;54603;45.638;11.714;2023-01-10T09:13:47;3.40;;;2.30;;
67804;SDS011;54603;45.638;11.714;2023-01-10T09:16:15;2.90;;;2.20;;
67804;SDS011;54603;45.638;11.714;2023-01-10T09:18:42;3.70;;;2.70;;
67804;SDS011;54603;45.638;11.714;2023-01-10T09:21:09;2.90;;;2.40;;
67804;SDS011;54603;45.638;11.714;2023-01-10T09:23:40;4.30;;;2.30;;
67804;SDS011;54603;45.638;11.714;2023-01-10T09:26:09;4.20;;;2.50;;
67804;SDS011;54603;45.638;11.714;2023-01-10T09:28:58;4.90;;;2.60;;
67804;SDS011;54603;45.638;11.714;2023-01-10T09:32:02;4.40;;;2.30;;
67804;SDS011;54603;45.638;11.714;2023-01-10T09:34:28;3.20;;;2.50;;
67804;SDS011;54603;45.638;11.714;2023-01-10T09:36:56;3.20;;;2.20;;
67804;SDS011;54603;45.638;11.714;2023-01-10T09:39:22;3.50;;;2.30;;
67804;SDS011;54603;45.638;11.714;2023-01-10T09:41:53;2.80;;;2.40;;
67804;SDS011;54603;45.638;11.714;2023-01-10T09:44:45;3.00;;;2.30;;
67804;SDS011;54603;45.638;11.714;2023-01-10T09:50:04;4.30;;;2.80;;
67804;SDS011;54603;45.638;11.714;2023-01-10T09:52:46;3.50;;;2.50;;
67804;SDS011;54603;45.638;11.714;2023-01-10T09:55:29;3.30;;;2.30;;
67804;SDS011;54603;45.638;11.714;2023-01-10T09:57:57;4.60;;;2.80;;
67804;SDS011;54603;45.638;11.714;2023-01-10T10:00:36;3.30;;;2.70;;
67804;SDS011;54603;45.638;11.714;2023-01-10T10:03:21;5.70;;;2.40;;
67804;SDS011;54603;45.638;11.714;2023-01-10T10:05:56;4.40;;;2.60;;
67804;SDS011;54603;45.638;11.714;2023-01-10T10:08:22;4.50;;;2.80;;
67804;SDS011;54603;45.638;11.714;2023-01-10T10:13:39;4.20;;;2.60;;
67804;SDS011;54603;45.638;11.714;2023-01-10T10:16:47;4.10;;;2.80;;
67804;SDS011;54603;45.638;11.714;2023-01-10T10:22:32;3.30;;;2.30;;
67804;SDS011;54603;45.638;11.714;2023-01-10T10:33:51;3.50;;;2.20;;
67804;SDS011;54603;45.638;11.714;2023-01-10T10:38:49;3.80;;;3.00;;
67804;SDS011;54603;45.638;11.714;2023-01-10T10:41:20;4.60;;;3.00;;
67804;SDS011;54603;45.638;11.714;2023-01-10T10:43:54;4.30;;;2.80;;
67804;SDS011;54603;45.638;11.714;2023-01-10T10:46:28;4.80;;;2.90;;
67804;SDS011;54603;45.638;11.714;2023-01-10T10:48:56;3.10;;;2.70;;
67804;SDS011;54603;45.638;11.714;2023-01-10T10:51:25;3.90;;;2.80;;
67804;SDS011;54603;45.638;11.714;2023-01-10T10:53:59;4.20;;;2.60;;
67804;SDS011;54603;45.638;11.714;2023-01-10T10:56:25;4.30;;;2.70;;
67804;SDS011;54603;45.638;11.714;2023-01-10T10:58:56;4.50;;;2.90;;
67804;SDS011;54603;45.638;11.714;2023-01-10T11:01:23;3.10;;;2.80;;
67804;SDS011;54603;45.638;11.714;2023-01-10T11:04:06;4.40;;;3.10;;
67804;SDS011;54603;45.638;11.714;2023-01-10T11:06:42;5.70;;;2.80;;
67804;SDS011;54603;45.638;11.714;2023-01-10T11:09:13;4.10;;;2.60;;
67804;SDS011;54603;45.638;11.714;2023-01-10T11:11:46;4.00;;;2.90;;
67804;SDS011;54603;45.638;11.714;2023-01-10T11:14:38;8.10;;;3.30;;
67804;SDS011;54603;45.638;11.714;2023-01-10T11:17:20;5.30;;;3.80;;
67804;SDS011;54603;45.638;11.714;2023-01-10T11:19:59;5.10;;;3.60;;
67804;SDS011;54603;45.638;11.714;2023-01-10T11:25:19;5.60;;;3.80;;
67804;SDS011;54603;45.638;11.714;2023-01-10T11:27:50;6.50;;;4.20;;
67804;SDS011;54603;45.638;11.714;2023-01-10T11:30:23;7.70;;;3.70;;
67804;SDS011;54603;45.638;11.714;2023-01-10T11:33:03;5.20;;;3.90;;
67804;SDS011;54603;45.638;11.714;2023-01-10T11:35:35;5.00;;;3.70;;
67804;SDS011;54603;45.638;11.714;2023-01-10T11:40:50;5.30;;;3.70;;
67804;SDS011;54603;45.638;11.714;2023-01-10T11:43:43;6.30;;;3.80;;
67804;SDS011;54603;45.638;11.714;2023-01-10T11:48:50;4.60;;;3.70;;
67804;SDS011;54603;45.638;11.714;2023-01-10T11:51:27;4.20;;;3.70;;
67804;SDS011;54603;45.638;11.714;2023-01-10T11:53:58;5.20;;;3.80;;
67804;SDS011;54603;45.638;11.714;2023-01-10T11:56:28;4.00;;;3.40;;
67804;SDS011;54603;45.638;11.714;2023-01-10T11:58:56;4.50;;;3.50;;
67804;SDS011;54603;45.638;11.714;2023-01-10T12:01:27;6.30;;;3.60;;
67804;SDS011;54603;45.638;11.714;2023-01-10T12:03:58;7.70;;;4.00;;
67804;SDS011;54603;45.638;11.714;2023-01-10T12:06:24;6.20;;;3.80;;
67804;SDS011;54603;45.638;11.714;2023-01-10T12:08:50;5.00;;;3.60;;
67804;SDS011;54603;45.638;11.714;2023-01-10T12:13:52;6.50;;;3.30;;
67804;SDS011;54603;45.638;11.714;2023-01-10T12:18:54;4.90;;;3.80;;
67804;SDS011;54603;45.638;11.714;2023-01-10T12:21:35;6.20;;;3.60;;
67804;SDS011;54603;45.638;11.714;2023-01-10T12:24:05;4.90;;;3.30;;
67804;SDS011;54603;45.638;11.714;2023-01-10T12:26:38;5.60;;;3.50;;
67804;SDS011;54603;45.638;11.714;2023-01-10T12:29:06;5.30;;;3.60;;
67804;SDS011;54603;45.638;11.714;2023-01-10T12:31:36;5.50;;;3.80;;
67804;SDS011;54603;45.638;11.714;2023-01-10T12:34:15;4.90;;;3.40;;
67804;SDS011;54603;45.638;11.714;2023-01-10T12:39:32;4.90;;;3.00;;
67804;SDS011;54603;45.638;11.714;2023-01-10T12:47:57;4.60;;;3.10;;
67804;SDS011;54603;45.638;11.714;2023-01-10T12:50:36;5.30;;;2.60;;
67804;SDS011;54603;45.638;11.714;2023-01-10T12:53:23;4.10;;;2.60;;
67804;SDS011;54603;45.638;11.714;2023-01-10T12:56:00;3.80;;;2.60;;
67804;SDS011;54603;45.638;11.714;2023-01-10T12:58:43;4.30;;;2.20;;
67804;SDS011;54603;45.638;11.714;2023-01-10T13:01:22;3.20;;;2.50;;
67804;SDS011;54603;45.638;11.714;2023-01-10T13:03:54;3.50;;;2.10;;
67804;SDS011;54603;45.638;11.714;2023-01-10T13:06:31;4.30;;;2.20;;
67804;SDS011;54603;45.638;11.714;2023-01-10T13:08:59;3.00;;;2.00;;
67804;SDS011;54603;45.638;11.714;2023-01-10T13:13:59;4.50;;;2.10;;
67804;SDS011;54603;45.638;11.714;2023-01-10T13:21:22;2.50;;;1.80;;
67804;SDS011;54603;45.638;11.714;2023-01-10T13:23:49;2.80;;;1.80;;
67804;SDS011;54603;45.638;11.714;2023-01-10T13:26:22;2.50;;;1.70;;
67804;SDS011;54603;45.638;11.714;2023-01-10T13:28:54;2.30;;;1.50;;
67804;SDS011;54603;45.638;11.714;2023-01-10T13:31:31;1.90;;;1.40;;
67804;SDS011;54603;45.638;11.714;2023-01-10T13:34:02;2.20;;;1.60;;
67804;SDS011;54603;45.638;11.714;2023-01-10T13:36:34;1.90;;;1.50;;
67804;SDS011;54603;45.638;11.714;2023-01-10T13:39:25;2.00;;;1.50;;
67804;SDS011;54603;45.638;11.714;2023-01-10T14:06:11;1.70;;;1.30;;
67804;SDS011;54603;45.638;11.714;2023-01-10T14:08:46;1.80;;;1.20;;
67804;SDS011;54603;45.638;11.714;2023-01-10T14:11:13;1.20;;;1.00;;
67804;SDS011;54603;45.638;11.714;2023-01-10T14:13:45;1.30;;;1.00;;
67804;SDS011;54603;45.638;11.714;2023-01-10T14:16:34;1.50;;;1.10;;
67804;SDS011;54603;45.638;11.714;2023-01-10T14:19:03;1.40;;;1.00;;
67804;SDS011;54603;45.638;11.714;2023-01-10T14:21:35;1.70;;;1.20;;
67804;SDS011;54603;45.638;11.714;2023-01-10T14:24:05;1.10;;;1.00;;
67804;SDS011;54603;45.638;11.714;2023-01-10T14:29:14;1.80;;;1.00;;
67804;SDS011;54603;45.638;11.714;2023-01-10T14:31:44;1.90;;;1.00;;
67804;SDS011;54603;45.638;11.714;2023-01-10T14:34:21;1.40;;;1.10;;
67804;SDS011;54603;45.638;11.714;2023-01-10T14:36:54;2.20;;;1.30;;
67804;SDS011;54603;45.638;11.714;2023-01-10T14:39:22;1.80;;;1.10;;
67804;SDS011;54603;45.638;11.714;2023-01-10T14:41:50;2.10;;;1.30;;
67804;SDS011;54603;45.638;11.714;2023-01-10T14:44:19;2.30;;;1.10;;
67804;SDS011;54603;45.638;11.714;2023-01-10T14:46:49;2.10;;;1.40;;
67804;SDS011;54603;45.638;11.714;2023-01-10T14:49:24;2.30;;;1.40;;
67804;SDS011;54603;45.638;11.714;2023-01-10T14:51:54;2.10;;;1.10;;
67804;SDS011;54603;45.638;11.714;2023-01-10T14:54:25;2.10;;;1.20;;
67804;SDS011;54603;45.638;11.714;2023-01-10T14:56:53;2.30;;;1.20;;
67804;SDS011;54603;45.638;11.714;2023-01-10T14:59:24;2.00;;;1.20;;
67804;SDS011;54603;45.638;11.714;2023-01-10T15:01:50;1.20;;;1.00;;
67804;SDS011;54603;45.638;11.714;2023-01-10T15:04:18;1.40;;;1.20;;
67804;SDS011;54603;45.638;11.714;2023-01-10T15:06:53;1.40;;;1.00;;
67804;SDS011;54603;45.638;11.714;2023-01-10T15:09:20;1.50;;;1.30;;
67804;SDS011;54603;45.638;11.714;2023-01-10T15:11:46;3.40;;;1.40;;
67804;SDS011;54603;45.638;11.714;2023-01-10T15:14:12;1.20;;;1.00;;
67804;SDS011;54603;45.638;11.714;2023-01-10T15:16:42;2.20;;;1.10;;
67804;SDS011;54603;45.638;11.714;2023-01-10T15:19:11;2.50;;;1.50;;
67804;SDS011;54603;45.638;11.714;2023-01-10T15:21:40;2.30;;;1.10;;
67804;SDS011;54603;45.638;11.714;2023-01-10T15:24:55;1.80;;;1.10;;
67804;SDS011;54603;45.638;11.714;2023-01-10T15:27:10;1.10;;;1.00;;
67804;SDS011;54603;45.638;11.714;2023-01-10T15:29:38;2.20;;;1.20;;
67804;SDS011;54603;45.638;11.714;2023-01-10T15:32:21;1.90;;;1.40;;
67804;SDS011;54603;45.638;11.714;2023-01-10T15:34:50;1.90;;;1.30;;
67804;SDS011;54603;45.638;11.714;2023-01-10T15:37:21;2.60;;;1.40;;
67804;SDS011;54603;45.638;11.714;2023-01-10T15:39:50;3.40;;;1.80;;
67804;SDS011;54603;45.638;11.714;2023-01-10T15:42:17;4.00;;;1.80;;
67804;SDS011;54603;45.638;11.714;2023-01-10T15:45:28;2.90;;;2.20;;
67804;SDS011;54603;45.638;11.714;2023-01-10T15:47:56;3.80;;;2.00;;
67804;SDS011;54603;45.638;11.714;2023-01-10T15:50:32;2.40;;;1.90;;
67804;SDS011;54603;45.638;11.714;2023-01-10T15:53:06;3.50;;;2.40;;
67804;SDS011;54603;45.638;11.714;2023-01-10T15:55:38;5.10;;;2.20;;
67804;SDS011;54603;45.638;11.714;2023-01-10T15:58:20;3.10;;;2.10;;
67804;SDS011;54603;45.638;11.714;2023-01-10T16:00:50;3.20;;;2.30;;
67804;SDS011;54603;45.638;11.714;2023-01-10T16:03:30;3.40;;;2.30;;
67804;SDS011;54603;45.638;11.714;2023-01-10T16:06:04;4.30;;;2.30;;
67804;SDS011;54603;45.638;11.714;2023-01-10T16:08:37;2.70;;;2.10;;
67804;SDS011;54603;45.638;11.714;2023-01-10T16:11:06;2.30;;;2.10;;
67804;SDS011;54603;45.638;11.714;2023-01-10T16:14:06;2.40;;;2.10;;
67804;SDS011;54603;45.638;11.714;2023-01-10T16:16:36;2.40;;;2.20;;
67804;SDS011;54603;45.638;11.714;2023-01-10T16:19:04;2.70;;;2.10;;
67804;SDS011;54603;45.638;11.714;2023-01-10T16:21:33;3.30;;;2.20;;
67804;SDS011;54603;45.638;11.714;2023-01-10T16:24:19;3.40;;;2.00;;
67804;SDS011;54603;45.638;11.714;2023-01-10T16:26:52;2.80;;;2.30;;
67804;SDS011;54603;45.638;11.714;2023-01-10T16:29:23;4.10;;;2.30;;
67804;SDS011;54603;45.638;11.714;2023-01-10T16:32:36;2.90;;;2.30;;
67804;SDS011;54603;45.638;11.714;2023-01-10T16:35:02;3.20;;;2.40;;
67804;SDS011;54603;45.638;11.714;2023-01-10T16:37:47;3.40;;;2.30;;
67804;SDS011;54603;45.638;11.714;2023-01-10T16:40:25;3.40;;;2.90;;
67804;SDS011;54603;45.638;11.714;2023-01-10T16:42:53;3.50;;;2.20;;
67804;SDS011;54603;45.638;11.714;2023-01-10T16:45:38;5.40;;;2.60;;
67804;SDS011;54603;45.638;11.714;2023-01-10T16:48:04;5.60;;;2.30;;
67804;SDS011;54603;45.638;11.714;2023-01-10T16:50:30;3.90;;;2.40;;